Time;durP1;ratioP1;P1;durP2;ratioP2;P2;SDS_P1;SDS_P2;PMS_P1;PMS_P2;Temp;Humidity;BMP_temperature;BMP_pressure;BME280_temperature;BME280_humidity;BME280_pressure;Samples;Min_cycle;Max_cycle;Signal;HPM_P1;HPM_P2
2022/05/11 00:01:48;;;;;;;14.40;5.60;;;16.50;97.70;;;;;;5010939;28;20487;-71
2022/05/11 00:04:15;;;;;;;12.77;5.93;;;16.30;98.10;;;;;;5010856;28;20393;-71
2022/05/11 00:06:41;;;;;;;9.30;4.57;;;16.60;97.60;;;;;;5007159;28;20030;-71
2022/05/11 00:09:09;;;;;;;9.57;5.45;;;16.60;97.50;;;;;;5027448;28;20419;-70
2022/05/11 00:11:36;;;;;;;10.10;5.03;;;16.30;98.10;;;;;;5007480;28;20029;-71
2022/05/11 00:14:02;;;;;;;7.03;5.10;;;16.20;98.40;;;;;;5010108;28;20054;-71
2022/05/11 00:16:28;;;;;;;8.23;5.22;;;16.10;98.40;;;;;;5003344;28;20046;-70
2022/05/11 00:18:55;;;;;;;11.73;5.10;;;15.90;98.80;;;;;;5012353;28;20092;-71
2022/05/11 00:21:21;;;;;;;12.15;6.00;;;15.80;99.20;;;;;;5012052;28;20030;-71
2022/05/11 00:23:47;;;;;;;8.50;5.63;;;15.90;99.10;;;;;;5011693;28;20029;-71
2022/05/11 00:26:13;;;;;;;13.60;5.32;;;15.90;99.00;;;;;;5014278;28;20384;-70
2022/05/11 00:28:38;;;;;;;9.95;5.43;;;16.10;98.70;;;;;;5006689;28;20026;-70
2022/05/11 00:31:04;;;;;;;13.95;5.45;;;16.00;98.90;;;;;;5005278;28;20030;-70
2022/05/11 00:33:30;;;;;;;10.63;5.32;;;16.00;98.60;;;;;;5003461;28;20049;-71
2022/05/11 00:35:56;;;;;;;10.00;5.63;;;16.10;98.80;;;;;;5012653;28;20115;-71
2022/05/11 00:38:24;;;;;;;9.70;5.03;;;16.00;98.90;;;;;;5009951;28;20030;-71
2022/05/11 00:40:58;;;;;;;10.63;5.45;;;16.00;98.90;;;;;;5008823;28;20033;-71
2022/05/11 00:43:41;;;;;;;15.40;6.50;;;15.90;99.00;;;;;;5010495;28;20041;-70
2022/05/11 00:46:17;;;;;;;10.57;6.28;;;15.90;99.00;;;;;;5012156;28;20512;-71
2022/05/11 00:51:34;;;;;;;13.68;5.25;;;16.00;98.80;;;;;;5007285;28;20133;-71
2022/05/11 00:54:02;;;;;;;11.68;5.68;;;16.00;98.90;;;;;;5009296;28;20046;-70
2022/05/11 00:56:27;;;;;;;12.32;5.65;;;16.20;98.60;;;;;;5012299;28;20030;-71
2022/05/11 00:58:58;;;;;;;15.15;5.88;;;16.00;98.90;;;;;;5010647;28;20125;-71
2022/05/11 01:01:25;;;;;;;15.23;5.50;;;15.90;99.00;;;;;;5010578;28;20547;-73
2022/05/11 01:04:05;;;;;;;11.25;5.40;;;16.00;99.10;;;;;;5008616;28;20054;-73
2022/05/11 01:06:33;;;;;;;11.50;5.30;;;16.00;98.80;;;;;;5008292;28;20037;-70
2022/05/11 01:09:00;;;;;;;12.68;6.05;;;16.10;98.60;;;;;;5007621;28;20026;-71
2022/05/11 01:11:27;;;;;;;9.05;5.50;;;16.50;98.10;;;;;;5010834;28;20034;-71
2022/05/11 01:13:53;;;;;;;9.77;4.63;;;16.50;97.90;;;;;;5006880;28;20045;-71
2022/05/11 01:16:19;;;;;;;11.82;5.63;;;16.00;99.10;;;;;;4996877;28;20029;-70
2022/05/11 01:18:44;;;;;;;11.07;5.85;;;16.00;99.00;;;;;;5006054;28;20026;-71
2022/05/11 01:21:10;;;;;;;11.68;5.35;;;16.20;98.50;;;;;;5002472;28;20498;-71
2022/05/11 01:23:42;;;;;;;12.00;5.85;;;16.30;98.40;;;;;;5008728;28;20029;-71
2022/05/11 01:26:08;;;;;;;11.38;5.47;;;16.20;98.50;;;;;;5014139;28;20037;-70
2022/05/11 01:28:40;;;;;;;9.80;5.85;;;16.10;98.90;;;;;;5005437;28;20388;-70
2022/05/11 01:31:09;;;;;;;11.90;6.13;;;15.90;99.00;;;;;;5006905;28;20089;-71
2022/05/11 01:33:39;;;;;;;12.52;6.15;;;15.90;99.10;;;;;;5010514;28;20041;-70
2022/05/11 01:36:20;;;;;;;9.95;5.85;;;15.80;99.20;;;;;;5011885;28;20040;-70
2022/05/11 01:38:47;;;;;;;10.70;5.82;;;15.80;99.20;;;;;;5003326;28;20034;-71
2022/05/11 01:41:54;;;;;;;10.35;5.20;;;15.80;99.40;;;;;;5005462;28;20037;-73
2022/05/11 01:44:21;;;;;;;13.55;6.22;;;15.60;99.70;;;;;;4972102;28;20038;-71
2022/05/11 01:46:53;;;;;;;10.25;5.20;;;15.70;99.60;;;;;;5000839;28;20062;-70
2022/05/11 01:49:20;;;;;;;14.45;6.60;;;15.80;99.40;;;;;;5015231;28;20102;-71
2022/05/11 01:51:47;;;;;;;14.15;5.60;;;15.70;99.60;;;;;;5010979;28;20029;-71
2022/05/11 01:54:14;;;;;;;12.07;4.95;;;15.50;99.90;;;;;;5007141;28;20077;-71
2022/05/11 01:56:40;;;;;;;9.05;5.38;;;15.40;99.90;;;;;;5004467;28;20747;-71
2022/05/11 01:59:05;;;;;;;12.88;6.50;;;15.50;99.90;;;;;;5010726;28;20065;-71
2022/05/11 02:01:35;;;;;;;14.40;5.68;;;15.50;99.90;;;;;;5028451;28;20059;-71
2022/05/11 02:04:01;;;;;;;11.52;5.68;;;15.50;99.90;;;;;;5013406;28;20084;-71
2022/05/11 02:09:12;;;;;;;12.88;5.72;;;15.70;99.60;;;;;;5008527;28;20041;-71
2022/05/11 02:11:38;;;;;;;13.00;5.80;;;15.70;99.70;;;;;;5017148;28;20121;-71
2022/05/11 02:14:05;;;;;;;11.25;6.30;;;15.70;99.60;;;;;;5009696;28;20045;-71
2022/05/11 02:16:32;;;;;;;11.00;5.28;;;15.80;99.50;;;;;;5011578;28;20056;-71
2022/05/11 02:18:58;;;;;;;13.75;5.70;;;15.60;99.50;;;;;;5008376;28;20475;-71
2022/05/11 02:21:24;;;;;;;13.48;5.68;;;15.60;99.80;;;;;;5009881;28;20048;-72
2022/05/11 02:23:52;;;;;;;11.82;5.63;;;15.40;99.90;;;;;;5006454;28;20125;-71
2022/05/11 02:26:19;;;;;;;9.82;5.65;;;15.20;99.90;;;;;;5005415;28;20037;-72
2022/05/11 02:28:47;;;;;;;11.48;5.80;;;14.80;99.90;;;;;;5000462;28;20380;-71
2022/05/11 02:31:13;;;;;;;10.55;5.80;;;14.90;99.90;;;;;;5011363;28;20052;-71
2022/05/11 02:33:39;;;;;;;14.73;6.15;;;14.80;99.90;;;;;;5005687;28;20045;-71
2022/05/11 02:36:05;;;;;;;9.20;5.60;;;14.90;99.90;;;;;;5009631;28;20025;-71
2022/05/11 02:38:36;;;;;;;11.95;5.93;;;15.10;99.90;;;;;;5008928;28;20026;-71
2022/05/11 02:41:02;;;;;;;11.57;6.05;;;15.20;99.90;;;;;;5010049;28;20038;-71
2022/05/11 02:43:28;;;;;;;13.23;5.63;;;14.60;99.90;;;;;;5010063;28;20033;-71
2022/05/11 02:45:55;;;;;;;16.85;6.53;;;14.60;99.90;;;;;;5008202;28;20037;-71
2022/05/11 02:48:24;;;;;;;11.32;5.88;;;15.00;99.90;;;;;;5006062;28;20044;-71
2022/05/11 02:50:54;;;;;;;10.80;6.00;;;14.90;99.90;;;;;;5001402;28;20546;-71
2022/05/11 02:53:21;;;;;;;10.65;6.50;;;14.90;99.90;;;;;;5007275;28;20066;-71
2022/05/11 02:55:49;;;;;;;9.15;5.28;;;14.80;99.90;;;;;;5007031;28;20519;-70
2022/05/11 02:58:17;;;;;;;10.13;5.32;;;14.80;99.90;;;;;;4999072;28;20026;-71
2022/05/11 03:00:45;;;;;;;15.77;6.53;;;14.80;99.90;;;;;;5000679;28;20034;-70
2022/05/11 03:03:13;;;;;;;10.32;4.93;;;15.10;99.90;;;;;;5004335;28;20057;-69
2022/05/11 03:05:40;;;;;;;14.52;5.97;;;14.90;99.90;;;;;;4999282;28;20456;-70
2022/05/11 03:08:06;;;;;;;11.02;6.18;;;14.80;99.90;;;;;;4997051;28;20029;-70
2022/05/11 03:10:32;;;;;;;9.52;5.72;;;14.90;99.90;;;;;;4996310;28;20026;-69
2022/05/11 03:12:58;;;;;;;13.50;6.07;;;14.90;99.90;;;;;;5001146;28;20468;-69
2022/05/11 03:15:24;;;;;;;15.50;6.13;;;15.00;99.90;;;;;;4998537;28;20034;-69
2022/05/11 03:17:50;;;;;;;9.43;5.93;;;14.90;99.90;;;;;;4996469;28;20088;-69
2022/05/11 03:20:18;;;;;;;10.90;6.43;;;15.10;99.90;;;;;;4998411;28;20037;-69
2022/05/11 03:22:44;;;;;;;12.10;6.20;;;14.90;99.90;;;;;;5000444;28;20042;-70
2022/05/11 03:25:11;;;;;;;13.57;6.13;;;15.00;99.90;;;;;;4999281;28;20121;-70
2022/05/11 03:27:37;;;;;;;9.15;5.57;;;15.00;99.90;;;;;;4995528;28;20022;-69
2022/05/11 03:30:05;;;;;;;11.98;5.97;;;15.20;99.90;;;;;;5003090;28;20030;-69
2022/05/11 03:35:14;;;;;;;10.13;5.65;;;15.10;99.90;;;;;;4987988;28;20044;-69
2022/05/11 03:37:40;;;;;;;16.50;6.50;;;14.90;99.90;;;;;;4996889;28;20372;-70
2022/05/11 03:40:08;;;;;;;11.70;6.43;;;15.10;99.90;;;;;;4986530;28;20329;-70
2022/05/11 03:42:35;;;;;;;10.55;5.97;;;15.30;99.90;;;;;;5008427;28;20369;-69
2022/05/11 03:45:19;;;;;;;12.32;6.28;;;15.20;99.90;;;;;;5005531;28;20595;-70
2022/05/11 03:47:46;;;;;;;13.10;6.32;;;14.90;99.90;;;;;;5013585;28;20037;-69
2022/05/11 03:50:13;;;;;;;14.23;5.50;;;14.80;99.90;;;;;;5006625;28;20458;-69
2022/05/11 03:52:39;;;;;;;10.27;5.55;;;14.80;99.90;;;;;;5004152;28;20118;-70
2022/05/11 03:55:08;;;;;;;12.38;5.78;;;14.80;99.90;;;;;;5007433;28;20029;-69
2022/05/11 03:57:36;;;;;;;12.02;6.32;;;14.70;99.90;;;;;;5006871;28;20117;-69
2022/05/11 04:00:02;;;;;;;12.27;5.63;;;14.40;99.90;;;;;;5017593;28;20037;-70
2022/05/11 04:02:27;;;;;;;10.15;5.82;;;14.20;99.90;;;;;;5010340;28;20054;-69
2022/05/11 04:04:53;;;;;;;9.82;6.28;;;14.40;99.90;;;;;;5004394;28;20530;-70
2022/05/11 04:07:19;;;;;;;10.85;6.45;;;14.40;99.90;;;;;;5017551;28;20048;-69
2022/05/11 04:09:44;;;;;;;13.40;6.40;;;14.50;99.90;;;;;;5020099;28;20465;-70
2022/05/11 04:12:10;;;;;;;13.75;6.13;;;14.40;99.90;;;;;;5008073;28;20066;-69
2022/05/11 04:14:36;;;;;;;11.68;5.78;;;14.60;99.90;;;;;;5012990;28;20069;-70
2022/05/11 04:17:02;;;;;;;16.70;6.20;;;14.30;99.90;;;;;;5009609;28;20037;-69
2022/05/11 04:19:28;;;;;;;10.60;6.47;;;14.20;99.90;;;;;;5006077;28;20045;-69
2022/05/11 04:21:54;;;;;;;11.65;6.47;;;14.30;99.90;;;;;;5005834;28;20042;-69
2022/05/11 04:24:19;;;;;;;12.07;6.45;;;14.10;99.90;;;;;;5008891;28;20034;-70
2022/05/11 04:26:45;;;;;;;10.65;5.50;;;14.20;99.90;;;;;;4993600;28;20033;-69
2022/05/11 04:29:11;;;;;;;10.07;5.82;;;14.20;99.90;;;;;;5008367;28;20118;-70
2022/05/11 04:31:37;;;;;;;12.25;6.97;;;14.40;99.90;;;;;;5006208;28;20030;-70
2022/05/11 04:34:03;;;;;;;13.50;6.22;;;14.60;99.90;;;;;;5002447;28;20045;-69
2022/05/11 04:36:30;;;;;;;14.18;6.03;;;14.70;99.90;;;;;;5010069;28;20079;-70
2022/05/11 04:38:56;;;;;;;11.13;5.65;;;14.50;99.90;;;;;;5007448;28;20032;-69
2022/05/11 04:41:22;;;;;;;10.02;5.75;;;14.50;99.90;;;;;;4993132;28;20034;-69
2022/05/11 04:43:48;;;;;;;13.15;6.90;;;14.50;99.90;;;;;;5007042;28;20042;-70
2022/05/11 04:46:14;;;;;;;15.70;6.53;;;14.60;99.90;;;;;;4999608;28;20496;-69
2022/05/11 04:48:42;;;;;;;11.23;6.40;;;14.70;99.90;;;;;;5005638;28;20128;-69
2022/05/11 04:51:08;;;;;;;12.85;6.22;;;14.60;99.90;;;;;;5004249;28;20041;-70
2022/05/11 04:53:34;;;;;;;11.60;5.97;;;14.60;99.90;;;;;;5006847;28;20078;-70
2022/05/11 04:56:00;;;;;;;12.68;6.15;;;14.60;99.90;;;;;;5007736;28;20092;-70
2022/05/11 04:58:26;;;;;;;13.98;6.55;;;14.50;99.90;;;;;;5007457;28;20037;-70
2022/05/11 05:00:52;;;;;;;13.25;6.32;;;14.50;99.90;;;;;;4999506;28;20038;-69
2022/05/11 05:03:17;;;;;;;8.15;6.32;;;14.30;99.90;;;;;;4994912;28;20073;-70
2022/05/11 05:05:43;;;;;;;15.15;6.63;;;14.30;99.90;;;;;;5005510;28;20484;-69
2022/05/11 05:08:09;;;;;;;16.40;6.82;;;14.40;99.90;;;;;;4998084;28;20105;-70
2022/05/11 05:10:35;;;;;;;9.68;5.55;;;14.50;99.90;;;;;;5008834;28;20041;-69
2022/05/11 05:13:06;;;;;;;10.15;6.00;;;14.50;99.90;;;;;;5003028;28;20048;-70
2022/05/11 05:15:34;;;;;;;13.23;6.75;;;14.40;99.90;;;;;;5004108;28;20056;-69
2022/05/11 05:18:01;;;;;;;13.63;6.45;;;14.40;99.90;;;;;;5002952;28;20044;-70
2022/05/11 05:20:28;;;;;;;12.10;6.50;;;14.40;99.90;;;;;;4995844;28;20096;-69
2022/05/11 05:22:53;;;;;;;11.52;6.13;;;14.40;99.90;;;;;;5005474;28;20026;-70
2022/05/11 05:25:19;;;;;;;10.60;6.22;;;14.50;99.90;;;;;;4995693;28;20039;-69
2022/05/11 05:27:45;;;;;;;9.45;6.50;;;14.50;99.90;;;;;;5002611;28;20040;-70
2022/05/11 05:32:55;;;;;;;;;;;14.70;99.90;;;;;;5005849;28;20085;-71
2022/05/11 05:35:21;;;;;;;12.32;5.72;;;14.70;99.90;;;;;;4992426;28;19918;-71
2022/05/11 05:37:47;;;;;;;10.98;6.72;;;14.80;99.90;;;;;;5007079;28;20029;-71
2022/05/11 05:40:13;;;;;;;10.98;6.95;;;14.90;99.90;;;;;;4998014;28;20663;-70
2022/05/11 05:42:40;;;;;;;9.35;5.47;;;14.90;99.90;;;;;;5019556;28;20121;-69
2022/05/11 05:45:07;;;;;;;10.18;6.25;;;15.10;99.90;;;;;;5005355;28;20061;-72
2022/05/11 05:47:33;;;;;;;12.43;6.40;;;15.20;99.90;;;;;;5005206;28;20056;-72
2022/05/11 05:49:58;;;;;;;14.57;6.20;;;15.30;99.90;;;;;;5003420;28;20034;-72
2022/05/11 05:52:25;;;;;;;12.07;6.03;;;15.40;99.90;;;;;;5004848;28;20450;-72
2022/05/11 05:54:54;;;;;;;12.20;7.15;;;15.50;99.90;;;;;;5004673;28;20060;-72
2022/05/11 05:57:20;;;;;;;13.63;7.93;;;15.40;99.90;;;;;;4998732;28;20060;-72
2022/05/11 05:59:45;;;;;;;16.95;8.82;;;15.20;99.90;;;;;;5003295;28;20516;-73
2022/05/11 06:02:16;;;;;;;13.18;8.15;;;15.20;99.90;;;;;;5004476;28;20042;-72
2022/05/11 06:04:49;;;;;;;10.27;7.15;;;15.20;99.90;;;;;;4999078;28;20465;-72
2022/05/11 06:07:18;;;;;;;17.20;7.88;;;15.30;99.90;;;;;;5004862;28;20111;-72
2022/05/11 06:09:44;;;;;;;13.45;8.40;;;15.40;99.90;;;;;;5004421;28;20026;-72
2022/05/11 06:12:12;;;;;;;12.82;6.10;;;15.60;99.90;;;;;;5004644;28;20049;-72
2022/05/11 06:14:38;;;;;;;22.02;8.32;;;15.60;99.90;;;;;;4999109;28;20034;-72
2022/05/11 06:17:11;;;;;;;15.40;7.97;;;15.60;99.90;;;;;;4990387;28;20716;-72
2022/05/11 06:19:38;;;;;;;19.38;8.38;;;15.60;99.90;;;;;;4975844;28;20830;-72
2022/05/11 06:22:04;;;;;;;15.52;7.15;;;15.70;99.90;;;;;;4975253;28;20390;-73
2022/05/11 06:24:30;;;;;;;20.23;9.10;;;15.80;99.90;;;;;;4976696;28;20041;-72
2022/05/11 06:26:56;;;;;;;16.27;7.75;;;15.90;99.90;;;;;;4982621;28;20344;-72
2022/05/11 06:29:22;;;;;;;15.15;7.40;;;16.00;99.90;;;;;;5001728;28;20109;-72
2022/05/11 06:31:48;;;;;;;12.40;7.03;;;16.00;99.90;;;;;;5001087;28;20054;-72
2022/05/11 06:34:15;;;;;;;12.27;7.18;;;16.10;99.90;;;;;;4999854;28;20073;-72
2022/05/11 06:36:42;;;;;;;10.48;7.10;;;16.10;99.90;;;;;;5001037;28;20084;-72
2022/05/11 06:39:09;;;;;;;11.00;6.40;;;16.30;99.90;;;;;;4998354;28;20030;-72
2022/05/11 06:41:35;;;;;;;11.30;7.20;;;16.50;99.90;;;;;;4999311;28;20088;-72
2022/05/11 06:44:03;;;;;;;12.50;6.35;;;16.60;99.90;;;;;;5004754;28;20048;-72
2022/05/11 06:46:28;;;;;;;10.95;7.07;;;16.70;99.90;;;;;;4999086;28;20104;-73
2022/05/11 06:48:54;;;;;;;12.32;7.00;;;16.90;99.90;;;;;;4976697;28;20030;-73
2022/05/11 06:51:20;;;;;;;11.52;7.80;;;17.10;99.90;;;;;;4991661;28;20036;-72
2022/05/11 06:59:21;;;;;;;17.20;12.32;;;17.70;99.90;;;;;;5000105;28;20091;-71
2022/05/11 07:01:55;;;;;;;14.02;9.65;;;18.00;99.60;;;;;;4974925;28;20145;-72
2022/05/11 07:04:24;;;;;;;15.73;10.20;;;18.30;98.70;;;;;;4974555;28;20109;-73
2022/05/11 07:06:55;;;;;;;16.50;8.60;;;18.50;98.70;;;;;;4984574;28;20519;-71
2022/05/11 07:09:24;;;;;;;20.75;10.15;;;18.60;98.40;;;;;;4984105;28;20036;-72
2022/05/11 07:14:35;;;;;;;17.60;6.38;;;19.40;96.50;;;;;;4995187;28;20072;-71
2022/05/11 07:17:01;;;;;;;12.95;7.13;;;20.20;95.00;;;;;;5001542;28;20496;-71
2022/05/11 07:19:27;;;;;;;12.30;6.50;;;20.80;93.90;;;;;;5002328;28;20084;-71
2022/05/11 07:21:54;;;;;;;12.35;7.60;;;21.70;93.00;;;;;;4979159;28;20568;-72
2022/05/11 07:24:20;;;;;;;9.82;5.93;;;22.60;91.80;;;;;;4977760;28;20161;-72
2022/05/11 07:26:46;;;;;;;10.05;5.28;;;23.40;90.80;;;;;;4988012;28;20022;-71
2022/05/11 07:29:12;;;;;;;11.00;5.95;;;23.70;90.10;;;;;;5002021;28;20022;-71
2022/05/11 07:31:38;;;;;;;11.63;4.88;;;24.00;88.60;;;;;;5001197;28;20483;-71
2022/05/11 07:34:04;;;;;;;11.75;5.35;;;24.20;88.60;;;;;;5000672;28;20041;-72
2022/05/11 07:36:30;;;;;;;14.27;5.65;;;24.10;87.90;;;;;;4994614;28;20026;-70
2022/05/11 07:38:56;;;;;;;11.23;4.95;;;24.00;87.50;;;;;;4988540;28;20037;-73
2022/05/11 07:41:21;;;;;;;13.32;5.10;;;23.90;88.00;;;;;;4994391;28;20544;-71
2022/05/11 07:43:47;;;;;;;7.70;4.80;;;23.60;88.50;;;;;;4994712;28;20025;-70
2022/05/11 07:46:13;;;;;;;10.38;5.25;;;23.90;89.10;;;;;;4996147;28;20031;-70
2022/05/11 07:48:38;;;;;;;12.02;5.68;;;24.00;87.50;;;;;;5005586;28;20029;-73
2022/05/11 07:51:04;;;;;;;9.82;5.07;;;23.70;88.40;;;;;;4996699;28;20405;-70
2022/05/11 07:53:31;;;;;;;20.73;6.00;;;22.80;89.00;;;;;;5018667;28;20033;-73
2022/05/11 08:01:25;;;;;;;17.58;6.90;;;20.10;92.30;;;;;;5009829;28;20683;-73
2022/05/11 08:03:51;;;;;;;11.35;6.65;;;20.30;92.30;;;;;;5001660;28;20046;-73
2022/05/11 08:06:18;;;;;;;13.43;6.13;;;20.30;92.40;;;;;;4992957;28;20026;-72
2022/05/11 08:08:45;;;;;;;9.75;6.18;;;21.70;91.10;;;;;;4998795;28;20029;-72
2022/05/11 08:11:11;;;;;;;14.18;6.25;;;23.30;89.40;;;;;;4999402;28;20496;-72
2022/05/11 08:13:37;;;;;;;12.95;5.90;;;23.50;89.30;;;;;;5004795;28;20084;-70
2022/05/11 08:16:03;;;;;;;10.00;5.03;;;23.40;89.10;;;;;;5002908;28;20500;-71
2022/05/11 08:18:29;;;;;;;9.65;4.95;;;23.30;89.80;;;;;;5009612;28;20030;-71
2022/05/11 08:20:55;;;;;;;12.93;5.30;;;23.10;89.40;;;;;;5030387;28;20037;-73
2022/05/11 08:23:21;;;;;;;10.95;4.97;;;22.60;88.40;;;;;;5010721;28;20033;-73
2022/05/11 08:25:49;;;;;;;9.40;5.38;;;22.30;88.50;;;;;;5009064;28;20030;-73
2022/05/11 08:28:22;;;;;;;12.38;5.35;;;21.40;90.40;;;;;;5010016;28;20041;-73
2022/05/11 08:33:37;;;;;;;11.00;5.30;;;21.10;90.90;;;;;;5010330;28;20088;-73
2022/05/11 08:36:06;;;;;;;9.00;5.30;;;21.40;91.50;;;;;;5006898;28;20036;-73
2022/05/11 08:38:35;;;;;;;10.77;5.38;;;21.30;91.60;;;;;;5000938;28;20068;-73
2022/05/11 08:41:27;;;;;;;13.70;4.85;;;21.30;90.70;;;;;;5009109;28;20030;-70
2022/05/11 08:44:18;;;;;;;11.57;4.95;;;21.50;91.10;;;;;;5010557;28;20041;-70
2022/05/11 08:47:08;;;;;;;10.90;5.20;;;21.60;90.90;;;;;;5003916;28;20164;-70
2022/05/11 08:49:52;;;;;;;13.50;4.65;;;21.60;90.00;;;;;;5010416;28;20033;-71
2022/05/11 08:52:52;;;;;;;15.75;5.20;;;21.60;90.20;;;;;;5007245;28;20132;-71
2022/05/11 08:55:50;;;;;;;11.32;5.20;;;21.50;90.40;;;;;;5008513;28;20576;-71
2022/05/11 08:58:25;;;;;;;10.80;5.45;;;21.40;90.50;;;;;;5003635;28;20042;-71
2022/05/11 09:00:54;;;;;;;12.65;5.68;;;21.50;90.50;;;;;;5008494;28;20117;-70
2022/05/11 09:03:31;;;;;;;13.68;6.00;;;21.70;91.10;;;;;;5006079;28;20104;-70
2022/05/11 09:06:03;;;;;;;10.90;4.65;;;21.70;90.80;;;;;;5007879;28;20479;-71
2022/05/11 09:08:35;;;;;;;7.78;5.13;;;21.60;91.00;;;;;;5009764;28;20073;-70
2022/05/11 09:11:00;;;;;;;11.65;5.60;;;22.10;91.60;;;;;;5007436;28;20064;-70
2022/05/11 09:13:27;;;;;;;10.18;4.97;;;22.20;91.40;;;;;;5002022;28;20041;-71
2022/05/11 09:15:53;;;;;;;10.05;5.40;;;22.20;90.90;;;;;;5005954;28;20030;-70
2022/05/11 09:18:21;;;;;;;8.55;5.28;;;22.50;91.00;;;;;;5005612;28;20030;-70
2022/05/11 09:20:50;;;;;;;22.48;11.30;;;22.40;90.70;;;;;;5007500;28;20091;-70
2022/05/11 09:23:31;;;;;;;17.40;7.35;;;22.30;91.20;;;;;;5000651;28;20030;-71
2022/05/11 09:26:07;;;;;;;17.40;8.63;;;22.70;91.40;;;;;;5002979;28;20064;-70
2022/05/11 09:28:36;;;;;;;27.70;16.08;;;22.90;90.90;;;;;;5006648;28;20272;-70
2022/05/11 09:31:07;;;;;;;31.10;13.60;;;23.00;90.80;;;;;;4986624;28;20028;-71
2022/05/11 09:33:41;;;;;;;24.40;12.88;;;23.20;90.90;;;;;;5004655;28;20124;-70
2022/05/11 09:36:09;;;;;;;28.50;10.88;;;23.30;90.30;;;;;;5002195;28;20030;-71
2022/05/11 09:38:44;;;;;;;30.20;18.83;;;23.40;90.10;;;;;;5004768;28;20395;-71
2022/05/11 09:41:18;;;;;;;32.72;17.40;;;23.20;90.00;;;;;;5008455;28;20032;-71
2022/05/11 09:43:50;;;;;;;16.50;10.45;;;23.40;90.60;;;;;;5028152;28;20040;-71
2022/05/11 09:46:27;;;;;;;15.00;8.38;;;23.30;89.70;;;;;;5015907;28;20033;-70
2022/05/11 09:48:55;;;;;;;21.50;12.38;;;23.30;90.60;;;;;;5008603;28;20034;-70
2022/05/11 09:51:23;;;;;;;35.28;18.30;;;23.10;90.10;;;;;;5001388;28;20045;-71
2022/05/11 09:54:18;;;;;;;35.45;15.15;;;23.20;88.10;;;;;;5024698;28;20044;-71
2022/05/11 09:56:49;;;;;;;;;;;23.70;89.90;;;;;;5006430;28;20030;-70
2022/05/11 09:59:23;;;;;;;13.43;6.70;;;23.40;87.70;;;;;;5009249;28;19910;-70
2022/05/11 10:01:54;;;;;;;12.43;6.40;;;23.50;88.00;;;;;;5007859;28;20041;-71
2022/05/11 10:04:28;;;;;;;8.77;5.70;;;23.60;90.30;;;;;;5015492;28;20041;-71
2022/05/11 10:06:56;;;;;;;11.18;5.93;;;23.90;89.20;;;;;;5027671;28;20033;-70
2022/05/11 10:09:34;;;;;;;18.55;7.75;;;23.90;88.50;;;;;;5027773;28;20033;-71
2022/05/11 10:12:02;;;;;;;12.68;6.72;;;23.70;87.90;;;;;;5009899;28;20061;-71
2022/05/11 10:23:15;;;;;;;14.48;6.85;;;24.70;88.40;;;;;;5000316;28;20740;-71
2022/05/11 10:25:46;;;;;;;10.50;5.75;;;24.40;86.80;;;;;;5007512;28;20018;-70
2022/05/11 10:28:23;;;;;;;11.00;5.93;;;24.30;87.90;;;;;;5004298;28;20037;-71
2022/05/11 10:31:26;;;;;;;10.95;6.03;;;24.80;89.70;;;;;;5002389;28;20045;-70
2022/05/11 10:34:16;;;;;;;11.80;6.32;;;25.00;88.70;;;;;;5000530;28;20053;-70
2022/05/11 10:37:07;;;;;;;12.30;7.40;;;25.40;89.00;;;;;;5000850;28;20033;-70
2022/05/11 10:40:10;;;;;;;15.52;7.10;;;25.50;87.70;;;;;;4999925;28;20456;-71
2022/05/11 10:42:43;;;;;;;11.68;6.40;;;25.20;89.10;;;;;;4995825;28;20034;-70
2022/05/11 10:45:17;;;;;;;11.35;6.22;;;24.50;87.10;;;;;;5007042;28;20041;-71
2022/05/11 10:47:58;;;;;;;10.13;5.70;;;24.70;88.30;;;;;;5005824;28;20092;-70
2022/05/11 10:50:46;;;;;;;11.70;7.03;;;25.00;90.20;;;;;;5001289;28;20034;-71
2022/05/11 10:54:09;;;;;;;16.33;6.35;;;25.20;89.60;;;;;;4993668;28;21042;-70
2022/05/11 10:57:11;;;;;;;12.82;6.55;;;25.00;87.60;;;;;;4983197;28;20031;-71
2022/05/11 11:00:06;;;;;;;10.45;6.30;;;24.80;87.10;;;;;;4967403;28;20049;-71
2022/05/11 11:02:51;;;;;;;9.27;5.60;;;24.90;88.20;;;;;;4996904;28;20045;-70
2022/05/11 11:05:34;;;;;;;11.00;5.28;;;25.40;89.10;;;;;;5001843;28;20565;-71
2022/05/11 11:08:25;;;;;;;9.23;4.95;;;25.90;88.10;;;;;;4999967;28;20029;-71
2022/05/11 11:10:59;;;;;;;10.82;5.78;;;26.30;89.40;;;;;;5006133;28;20036;-70
2022/05/11 11:13:51;;;;;;;8.55;5.57;;;26.40;85.80;;;;;;5006609;28;20052;-71
2022/05/11 11:16:17;;;;;;;8.10;5.18;;;26.40;86.70;;;;;;4993129;28;20046;-70
2022/05/11 11:18:49;;;;;;;7.78;4.85;;;26.60;86.10;;;;;;5003851;28;20033;-71
2022/05/11 11:21:17;;;;;;;9.75;5.22;;;26.60;84.50;;;;;;4990134;28;20046;-71
2022/05/11 11:23:47;;;;;;;9.82;5.05;;;26.90;86.30;;;;;;5003441;28;20400;-71
2022/05/11 11:26:59;;;;;;;10.07;4.78;;;27.10;86.00;;;;;;5005795;28;20018;-70
2022/05/11 11:29:36;;;;;;;12.57;4.95;;;27.00;85.50;;;;;;4998041;28;20045;-70
2022/05/11 11:32:15;;;;;;;9.18;5.18;;;26.80;84.10;;;;;;5001559;28;20108;-71
2022/05/11 11:35:11;;;;;;;7.65;4.82;;;26.60;84.40;;;;;;5007387;28;20084;-71
2022/05/11 11:37:39;;;;;;;11.90;5.60;;;26.70;85.60;;;;;;4998388;28;20073;-71
2022/05/11 11:40:27;;;;;;;9.18;5.30;;;27.00;85.30;;;;;;5007126;28;20057;-71
2022/05/11 11:42:53;;;;;;;12.82;5.10;;;26.90;84.20;;;;;;5006469;28;20034;-71
2022/05/11 11:45:26;;;;;;;8.75;5.15;;;26.90;84.90;;;;;;5007435;28;20645;-70
2022/05/11 11:48:04;;;;;;;7.43;5.40;;;27.10;85.20;;;;;;5002731;28;20600;-71
2022/05/11 11:50:49;;;;;;;9.52;4.78;;;27.20;83.80;;;;;;5009905;28;20036;-71
2022/05/11 11:53:23;;;;;;;10.88;5.70;;;27.00;84.40;;;;;;5008920;28;20035;-70
2022/05/11 11:55:50;;;;;;;11.95;5.65;;;27.20;84.60;;;;;;5010847;28;20026;-71
2022/05/11 11:58:32;;;;;;;11.70;5.10;;;27.30;84.70;;;;;;5010438;28;20637;-71
2022/05/11 12:01:08;;;;;;;7.97;4.65;;;27.20;85.20;;;;;;5009802;28;20026;-71
2022/05/11 12:03:38;;;;;;;9.00;4.90;;;27.20;83.00;;;;;;5010766;28;20042;-71
2022/05/11 12:17:32;;;;;;;10.27;4.88;;;27.60;83.70;;;;;;5009190;28;20551;-71
2022/05/11 12:20:09;;;;;;;8.13;4.80;;;27.30;84.10;;;;;;5000097;28;20316;-72
2022/05/11 12:22:48;;;;;;;9.57;4.78;;;27.50;83.50;;;;;;5009085;28;20034;-72
2022/05/11 12:25:28;;;;;;;17.38;4.70;;;27.50;84.10;;;;;;4998745;28;20052;-72
2022/05/11 12:27:56;;;;;;;12.65;5.10;;;27.50;83.60;;;;;;5002964;28;20431;-72
2022/05/11 12:30:28;;;;;;;9.02;5.03;;;27.80;83.90;;;;;;5002750;28;20033;-72
2022/05/11 12:33:04;;;;;;;10.55;4.60;;;27.70;82.90;;;;;;5002450;28;20034;-72
2022/05/11 12:35:41;;;;;;;6.47;4.20;;;27.80;83.90;;;;;;5003731;28;20042;-72
2022/05/11 12:38:09;;;;;;;11.68;4.70;;;27.90;84.20;;;;;;4997506;28;20027;-72
2022/05/11 12:40:43;;;;;;;10.13;4.50;;;27.80;82.80;;;;;;5006781;28;20038;-72
2022/05/11 12:43:27;;;;;;;7.10;4.72;;;28.00;82.70;;;;;;4999273;28;20105;-72
2022/05/11 12:45:54;;;;;;;;;;;28.00;81.40;;;;;;4996795;28;20045;-72
2022/05/11 12:48:24;;;;;;;9.40;4.30;;;28.00;82.30;;;;;;5006196;28;19916;-72
2022/05/11 12:50:58;;;;;;;9.93;4.35;;;28.00;82.10;;;;;;5000039;28;20061;-72
2022/05/11 12:53:28;;;;;;;14.68;5.32;;;28.10;82.00;;;;;;5002213;28;20126;-72
2022/05/11 12:56:07;;;;;;;9.40;4.88;;;28.30;81.80;;;;;;5005483;28;20084;-72
2022/05/11 12:58:34;;;;;;;10.07;4.53;;;28.00;81.90;;;;;;5025120;28;20026;-73
2022/05/11 13:01:03;;;;;;;10.85;4.57;;;27.90;83.20;;;;;;5010211;28;20045;-72
2022/05/11 13:03:36;;;;;;;8.90;4.00;;;28.00;81.50;;;;;;5003607;28;20057;-72
2022/05/11 13:06:05;;;;;;;14.07;5.40;;;28.10;81.80;;;;;;5000140;28;20034;-72
2022/05/11 13:08:45;;;;;;;7.32;5.20;;;27.90;81.40;;;;;;5004674;28;20038;-72
2022/05/11 13:11:15;;;;;;;11.68;5.82;;;27.80;82.30;;;;;;4990562;28;20116;-73
2022/05/11 13:13:45;;;;;;;10.68;5.30;;;27.90;82.30;;;;;;4976233;28;20151;-73
2022/05/11 13:16:19;;;;;;;16.88;4.97;;;28.00;81.30;;;;;;4971607;28;20034;-74
2022/05/11 13:18:46;;;;;;;10.25;5.28;;;28.00;82.00;;;;;;4971591;28;20113;-72
2022/05/11 13:21:12;;;;;;;26.67;7.80;;;27.80;82.40;;;;;;4970333;28;20057;-72
2022/05/11 13:23:49;;;;;;;15.05;5.40;;;27.70;81.30;;;;;;4969829;28;20380;-72
2022/05/11 13:26:31;;;;;;;10.88;4.07;;;27.60;81.90;;;;;;4985789;28;20084;-72
2022/05/11 13:29:24;;;;;;;6.78;4.43;;;27.60;80.90;;;;;;5006003;28;20076;-72
2022/05/11 13:32:11;;;;;;;8.90;5.13;;;27.50;81.40;;;;;;4979887;28;20038;-72
2022/05/11 13:34:39;;;;;;;8.60;4.07;;;27.80;81.80;;;;;;4976752;28;20038;-72
2022/05/11 13:37:24;;;;;;;8.48;4.65;;;27.60;80.80;;;;;;4976758;28;20030;-71
2022/05/11 13:39:51;;;;;;;8.35;4.10;;;27.60;81.10;;;;;;4990747;28;20084;-71
2022/05/11 13:42:26;;;;;;;11.38;4.78;;;27.70;81.10;;;;;;5011579;28;20034;-71
2022/05/11 13:44:53;;;;;;;9.75;4.57;;;27.90;81.30;;;;;;5005976;28;20033;-71